sensor_id;sensor_type;location;lat;lon;timestamp;P1;durP1;ratioP1;P2;durP2;ratioP2
7031;SDS011;3557;48.880;8.328;2023-03-23T00:02:22;1.65;;;1.23;;
7031;SDS011;3557;48.880;8.328;2023-03-23T00:04:51;1.30;;;1.20;;
7031;SDS011;3557;48.880;8.328;2023-03-23T00:07:19;1.50;;;1.30;;
7031;SDS011;3557;48.880;8.328;2023-03-23T00:09:47;2.30;;;1.50;;
7031;SDS011;3557;48.880;8.328;2023-03-23T00:12:19;1.38;;;1.27;;
7031;SDS011;3557;48.880;8.328;2023-03-23T00:14:58;1.40;;;1.30;;
7031;SDS011;3557;48.880;8.328;2023-03-23T00:17:26;1.85;;;1.30;;
7031;SDS011;3557;48.880;8.328;2023-03-23T00:19:54;1.23;;;1.20;;
7031;SDS011;3557;48.880;8.328;2023-03-23T00:22:23;2.35;;;1.40;;
7031;SDS011;3557;48.880;8.328;2023-03-23T00:24:51;1.80;;;1.20;;
7031;SDS011;3557;48.880;8.328;2023-03-23T00:27:18;1.98;;;1.17;;
7031;SDS011;3557;48.880;8.328;2023-03-23T00:29:48;5.47;;;1.35;;
7031;SDS011;3557;48.880;8.328;2023-03-23T00:32:18;1.23;;;1.20;;
7031;SDS011;3557;48.880;8.328;2023-03-23T00:34:46;1.67;;;1.40;;
7031;SDS011;3557;48.880;8.328;2023-03-23T00:37:14;1.50;;;1.30;;
7031;SDS011;3557;48.880;8.328;2023-03-23T00:39:44;1.40;;;1.30;;
7031;SDS011;3557;48.880;8.328;2023-03-23T00:42:12;2.15;;;1.23;;
7031;SDS011;3557;48.880;8.328;2023-03-23T00:44:41;1.50;;;1.30;;
7031;SDS011;3557;48.880;8.328;2023-03-23T00:47:10;1.60;;;1.50;;
7031;SDS011;3557;48.880;8.328;2023-03-23T00:49:39;1.42;;;1.20;;
7031;SDS011;3557;48.880;8.328;2023-03-23T00:52:07;1.63;;;1.30;;
7031;SDS011;3557;48.880;8.328;2023-03-23T00:54:36;1.65;;;1.30;;
7031;SDS011;3557;48.880;8.328;2023-03-23T00:57:05;2.30;;;1.45;;
7031;SDS011;3557;48.880;8.328;2023-03-23T00:59:32;1.13;;;1.10;;
7031;SDS011;3557;48.880;8.328;2023-03-23T01:02:00;2.97;;;1.40;;
7031;SDS011;3557;48.880;8.328;2023-03-23T01:04:27;1.45;;;1.30;;
7031;SDS011;3557;48.880;8.328;2023-03-23T01:06:56;1.38;;;1.27;;
7031;SDS011;3557;48.880;8.328;2023-03-23T01:09:25;1.50;;;1.40;;
7031;SDS011;3557;48.880;8.328;2023-03-23T01:11:53;2.72;;;1.30;;
7031;SDS011;3557;48.880;8.328;2023-03-23T01:14:23;2.45;;;1.20;;
7031;SDS011;3557;48.880;8.328;2023-03-23T01:16:50;2.00;;;1.40;;
7031;SDS011;3557;48.880;8.328;2023-03-23T01:19:18;1.40;;;1.30;;
7031;SDS011;3557;48.880;8.328;2023-03-23T01:21:45;3.72;;;1.50;;
7031;SDS011;3557;48.880;8.328;2023-03-23T01:24:13;2.33;;;1.73;;
7031;SDS011;3557;48.880;8.328;2023-03-23T01:26:40;2.85;;;1.40;;
7031;SDS011;3557;48.880;8.328;2023-03-23T01:29:07;1.63;;;1.40;;
7031;SDS011;3557;48.880;8.328;2023-03-23T01:31:36;2.03;;;1.48;;
7031;SDS011;3557;48.880;8.328;2023-03-23T01:34:05;1.67;;;1.38;;
7031;SDS011;3557;48.880;8.328;2023-03-23T01:36:33;1.98;;;1.55;;
7031;SDS011;3557;48.880;8.328;2023-03-23T01:39:03;1.92;;;1.75;;
7031;SDS011;3557;48.880;8.328;2023-03-23T01:41:32;1.40;;;1.30;;
7031;SDS011;3557;48.880;8.328;2023-03-23T01:44:59;1.42;;;1.23;;
7031;SDS011;3557;48.880;8.328;2023-03-23T01:47:45;1.40;;;1.30;;
7031;SDS011;3557;48.880;8.328;2023-03-23T01:50:13;1.75;;;1.27;;
7031;SDS011;3557;48.880;8.328;2023-03-23T01:52:41;2.55;;;1.42;;
7031;SDS011;3557;48.880;8.328;2023-03-23T01:55:08;1.40;;;1.30;;
7031;SDS011;3557;48.880;8.328;2023-03-23T01:57:36;3.92;;;1.40;;
7031;SDS011;3557;48.880;8.328;2023-03-23T02:00:04;1.35;;;1.20;;
7031;SDS011;3557;48.880;8.328;2023-03-23T02:02:39;1.30;;;1.20;;
7031;SDS011;3557;48.880;8.328;2023-03-23T02:05:12;1.15;;;1.05;;
7031;SDS011;3557;48.880;8.328;2023-03-23T02:07:43;1.30;;;1.20;;
7031;SDS011;3557;48.880;8.328;2023-03-23T02:10:11;5.18;;;1.35;;
7031;SDS011;3557;48.880;8.328;2023-03-23T02:12:38;1.27;;;1.20;;
7031;SDS011;3557;48.880;8.328;2023-03-23T02:15:08;1.42;;;1.33;;
7031;SDS011;3557;48.880;8.328;2023-03-23T02:17:41;1.50;;;1.40;;
7031;SDS011;3557;48.880;8.328;2023-03-23T02:20:17;1.38;;;1.23;;
7031;SDS011;3557;48.880;8.328;2023-03-23T02:26:02;1.40;;;1.30;;
7031;SDS011;3557;48.880;8.328;2023-03-23T02:28:48;1.40;;;1.30;;
7031;SDS011;3557;48.880;8.328;2023-03-23T02:31:56;1.90;;;1.30;;
7031;SDS011;3557;48.880;8.328;2023-03-23T02:34:39;1.70;;;1.40;;
7031;SDS011;3557;48.880;8.328;2023-03-23T02:37:09;1.60;;;1.50;;
7031;SDS011;3557;48.880;8.328;2023-03-23T02:39:41;2.20;;;1.60;;
7031;SDS011;3557;48.880;8.328;2023-03-23T02:42:13;2.75;;;1.52;;
7031;SDS011;3557;48.880;8.328;2023-03-23T02:44:44;3.05;;;1.60;;
7031;SDS011;3557;48.880;8.328;2023-03-23T02:47:13;2.30;;;1.40;;
7031;SDS011;3557;48.880;8.328;2023-03-23T02:49:44;2.03;;;1.45;;
7031;SDS011;3557;48.880;8.328;2023-03-23T02:52:16;1.90;;;1.50;;
7031;SDS011;3557;48.880;8.328;2023-03-23T02:54:48;1.30;;;1.23;;
7031;SDS011;3557;48.880;8.328;2023-03-23T02:57:16;1.50;;;1.40;;
7031;SDS011;3557;48.880;8.328;2023-03-23T02:59:45;2.47;;;1.60;;
7031;SDS011;3557;48.880;8.328;2023-03-23T03:02:13;1.70;;;1.52;;
7031;SDS011;3557;48.880;8.328;2023-03-23T03:04:44;1.40;;;1.30;;
7031;SDS011;3557;48.880;8.328;2023-03-23T03:07:22;1.50;;;1.40;;
7031;SDS011;3557;48.880;8.328;2023-03-23T03:10:04;1.65;;;1.55;;
7031;SDS011;3557;48.880;8.328;2023-03-23T03:12:41;1.40;;;1.30;;
7031;SDS011;3557;48.880;8.328;2023-03-23T03:15:20;1.33;;;1.23;;
7031;SDS011;3557;48.880;8.328;2023-03-23T03:17:55;1.85;;;1.30;;
7031;SDS011;3557;48.880;8.328;2023-03-23T03:20:28;2.40;;;1.70;;
7031;SDS011;3557;48.880;8.328;2023-03-23T03:22:57;1.77;;;1.38;;
7031;SDS011;3557;48.880;8.328;2023-03-23T03:25:26;1.63;;;1.45;;
7031;SDS011;3557;48.880;8.328;2023-03-23T03:27:55;1.63;;;1.50;;
7031;SDS011;3557;48.880;8.328;2023-03-23T03:30:36;3.08;;;1.80;;
7031;SDS011;3557;48.880;8.328;2023-03-23T03:33:05;2.78;;;1.50;;
7031;SDS011;3557;48.880;8.328;2023-03-23T03:35:34;1.45;;;1.35;;
7031;SDS011;3557;48.880;8.328;2023-03-23T03:38:06;2.13;;;1.40;;
7031;SDS011;3557;48.880;8.328;2023-03-23T03:40:35;2.13;;;1.48;;
7031;SDS011;3557;48.880;8.328;2023-03-23T03:43:02;3.13;;;1.50;;
7031;SDS011;3557;48.880;8.328;2023-03-23T03:45:30;2.42;;;1.55;;
7031;SDS011;3557;48.880;8.328;2023-03-23T03:47:57;1.70;;;1.58;;
7031;SDS011;3557;48.880;8.328;2023-03-23T03:50:25;1.80;;;1.50;;
7031;SDS011;3557;48.880;8.328;2023-03-23T03:52:54;3.75;;;1.67;;
7031;SDS011;3557;48.880;8.328;2023-03-23T03:55:23;1.50;;;1.40;;
7031;SDS011;3557;48.880;8.328;2023-03-23T03:57:53;1.42;;;1.33;;
7031;SDS011;3557;48.880;8.328;2023-03-23T04:00:39;1.92;;;1.40;;
7031;SDS011;3557;48.880;8.328;2023-03-23T04:03:08;1.40;;;1.30;;
7031;SDS011;3557;48.880;8.328;2023-03-23T04:06:03;1.60;;;1.30;;
7031;SDS011;3557;48.880;8.328;2023-03-23T04:08:34;1.70;;;1.40;;
7031;SDS011;3557;48.880;8.328;2023-03-23T04:11:03;2.13;;;1.40;;
7031;SDS011;3557;48.880;8.328;2023-03-23T04:13:32;2.00;;;1.50;;
7031;SDS011;3557;48.880;8.328;2023-03-23T04:16:19;1.95;;;1.80;;
7031;SDS011;3557;48.880;8.328;2023-03-23T04:18:47;1.85;;;1.55;;
7031;SDS011;3557;48.880;8.328;2023-03-23T04:21:16;1.42;;;1.30;;
7031;SDS011;3557;48.880;8.328;2023-03-23T04:23:48;2.30;;;1.52;;
7031;SDS011;3557;48.880;8.328;2023-03-23T04:26:16;3.10;;;1.73;;
7031;SDS011;3557;48.880;8.328;2023-03-23T04:28:47;2.42;;;1.60;;
7031;SDS011;3557;48.880;8.328;2023-03-23T04:31:33;1.58;;;1.48;;
7031;SDS011;3557;48.880;8.328;2023-03-23T04:34:13;1.60;;;1.50;;
7031;SDS011;3557;48.880;8.328;2023-03-23T04:36:46;1.50;;;1.40;;
7031;SDS011;3557;48.880;8.328;2023-03-23T04:39:22;4.30;;;1.60;;
7031;SDS011;3557;48.880;8.328;2023-03-23T04:41:53;2.17;;;1.55;;
7031;SDS011;3557;48.880;8.328;2023-03-23T04:44:44;1.98;;;1.58;;
7031;SDS011;3557;48.880;8.328;2023-03-23T04:47:19;3.25;;;1.50;;
7031;SDS011;3557;48.880;8.328;2023-03-23T04:49:53;3.30;;;1.50;;
7031;SDS011;3557;48.880;8.328;2023-03-23T04:52:41;2.63;;;1.70;;
7031;SDS011;3557;48.880;8.328;2023-03-23T04:55:11;2.17;;;1.67;;
7031;SDS011;3557;48.880;8.328;2023-03-23T04:57:42;1.50;;;1.40;;
7031;SDS011;3557;48.880;8.328;2023-03-23T05:00:33;2.17;;;1.75;;
7031;SDS011;3557;48.880;8.328;2023-03-23T05:03:02;2.97;;;1.52;;
7031;SDS011;3557;48.880;8.328;2023-03-23T05:05:32;1.95;;;1.50;;
7031;SDS011;3557;48.880;8.328;2023-03-23T05:08:05;2.33;;;1.25;;
7031;SDS011;3557;48.880;8.328;2023-03-23T05:10:39;1.83;;;1.60;;
7031;SDS011;3557;48.880;8.328;2023-03-23T05:13:12;1.60;;;1.50;;
7031;SDS011;3557;48.880;8.328;2023-03-23T05:15:40;2.05;;;1.58;;
7031;SDS011;3557;48.880;8.328;2023-03-23T05:18:08;3.03;;;1.65;;
7031;SDS011;3557;48.880;8.328;2023-03-23T05:20:36;2.58;;;2.05;;
7031;SDS011;3557;48.880;8.328;2023-03-23T05:23:09;1.77;;;1.60;;
7031;SDS011;3557;48.880;8.328;2023-03-23T05:25:38;2.15;;;1.67;;
7031;SDS011;3557;48.880;8.328;2023-03-23T05:28:14;1.92;;;1.60;;
7031;SDS011;3557;48.880;8.328;2023-03-23T05:31:16;2.10;;;1.52;;
7031;SDS011;3557;48.880;8.328;2023-03-23T05:33:44;3.05;;;1.60;;
7031;SDS011;3557;48.880;8.328;2023-03-23T05:36:30;2.15;;;1.70;;
7031;SDS011;3557;48.880;8.328;2023-03-23T05:39:29;2.38;;;1.60;;
7031;SDS011;3557;48.880;8.328;2023-03-23T05:42:20;2.72;;;2.13;;
7031;SDS011;3557;48.880;8.328;2023-03-23T05:44:57;3.35;;;2.40;;
7031;SDS011;3557;48.880;8.328;2023-03-23T05:47:25;4.03;;;1.80;;
7031;SDS011;3557;48.880;8.328;2023-03-23T05:49:57;2.08;;;1.80;;
7031;SDS011;3557;48.880;8.328;2023-03-23T05:52:28;1.92;;;1.60;;
7031;SDS011;3557;48.880;8.328;2023-03-23T05:54:58;5.05;;;1.80;;
7031;SDS011;3557;48.880;8.328;2023-03-23T05:57:28;3.38;;;2.50;;
7031;SDS011;3557;48.880;8.328;2023-03-23T06:00:04;4.25;;;2.42;;
7031;SDS011;3557;48.880;8.328;2023-03-23T06:02:44;3.53;;;2.83;;
7031;SDS011;3557;48.880;8.328;2023-03-23T06:05:20;3.22;;;2.08;;
7031;SDS011;3557;48.880;8.328;2023-03-23T06:07:52;2.28;;;2.00;;
7031;SDS011;3557;48.880;8.328;2023-03-23T06:10:20;2.10;;;1.90;;
7031;SDS011;3557;48.880;8.328;2023-03-23T06:12:56;3.22;;;1.98;;
7031;SDS011;3557;48.880;8.328;2023-03-23T06:15:35;1.80;;;1.70;;
7031;SDS011;3557;48.880;8.328;2023-03-23T06:18:17;1.80;;;1.70;;
7031;SDS011;3557;48.880;8.328;2023-03-23T06:21:09;2.65;;;1.80;;
7031;SDS011;3557;48.880;8.328;2023-03-23T06:24:07;2.30;;;1.83;;
7031;SDS011;3557;48.880;8.328;2023-03-23T06:26:36;3.17;;;1.70;;
7031;SDS011;3557;48.880;8.328;2023-03-23T06:29:10;2.38;;;1.90;;
7031;SDS011;3557;48.880;8.328;2023-03-23T06:31:43;2.80;;;1.90;;
7031;SDS011;3557;48.880;8.328;2023-03-23T06:34:13;3.15;;;2.25;;
7031;SDS011;3557;48.880;8.328;2023-03-23T06:37:00;3.22;;;2.00;;
7031;SDS011;3557;48.880;8.328;2023-03-23T06:39:39;1.80;;;1.63;;
7031;SDS011;3557;48.880;8.328;2023-03-23T06:42:17;2.97;;;1.92;;
7031;SDS011;3557;48.880;8.328;2023-03-23T06:44:52;2.40;;;1.80;;
7031;SDS011;3557;48.880;8.328;2023-03-23T06:47:22;2.70;;;2.42;;
7031;SDS011;3557;48.880;8.328;2023-03-23T06:49:49;2.47;;;1.80;;
7031;SDS011;3557;48.880;8.328;2023-03-23T06:52:27;3.17;;;2.05;;
7031;SDS011;3557;48.880;8.328;2023-03-23T06:54:54;4.80;;;2.22;;
7031;SDS011;3557;48.880;8.328;2023-03-23T06:57:22;2.42;;;1.90;;
7031;SDS011;3557;48.880;8.328;2023-03-23T06:59:52;3.10;;;1.75;;
7031;SDS011;3557;48.880;8.328;2023-03-23T07:02:22;4.35;;;1.80;;
7031;SDS011;3557;48.880;8.328;2023-03-23T07:04:51;3.17;;;1.92;;
7031;SDS011;3557;48.880;8.328;2023-03-23T07:07:21;2.30;;;2.03;;
7031;SDS011;3557;48.880;8.328;2023-03-23T07:10:21;3.03;;;2.50;;
7031;SDS011;3557;48.880;8.328;2023-03-23T07:12:50;3.53;;;2.33;;
7031;SDS011;3557;48.880;8.328;2023-03-23T07:15:19;3.53;;;2.30;;
7031;SDS011;3557;48.880;8.328;2023-03-23T07:17:49;3.42;;;2.50;;
7031;SDS011;3557;48.880;8.328;2023-03-23T07:20:24;3.67;;;2.50;;
7031;SDS011;3557;48.880;8.328;2023-03-23T07:22:53;3.03;;;1.92;;
7031;SDS011;3557;48.880;8.328;2023-03-23T07:25:35;2.60;;;2.10;;
7031;SDS011;3557;48.880;8.328;2023-03-23T07:28:03;3.35;;;2.35;;
7031;SDS011;3557;48.880;8.328;2023-03-23T07:30:32;3.22;;;2.40;;
7031;SDS011;3557;48.880;8.328;2023-03-23T07:33:03;2.95;;;2.40;;
7031;SDS011;3557;48.880;8.328;2023-03-23T07:35:31;4.03;;;2.78;;
7031;SDS011;3557;48.880;8.328;2023-03-23T07:38:06;3.17;;;2.20;;
7031;SDS011;3557;48.880;8.328;2023-03-23T07:40:34;3.72;;;2.78;;
7031;SDS011;3557;48.880;8.328;2023-03-23T07:43:13;2.67;;;2.28;;
7031;SDS011;3557;48.880;8.328;2023-03-23T07:45:57;2.22;;;2.03;;
7031;SDS011;3557;48.880;8.328;2023-03-23T07:48:32;2.60;;;2.08;;
7031;SDS011;3557;48.880;8.328;2023-03-23T07:50:59;2.38;;;2.00;;
7031;SDS011;3557;48.880;8.328;2023-03-23T07:53:29;2.67;;;2.33;;
7031;SDS011;3557;48.880;8.328;2023-03-23T07:56:10;2.83;;;2.33;;
7031;SDS011;3557;48.880;8.328;2023-03-23T07:58:51;2.50;;;2.25;;
7031;SDS011;3557;48.880;8.328;2023-03-23T08:01:20;2.75;;;2.10;;
7031;SDS011;3557;48.880;8.328;2023-03-23T08:04:08;2.30;;;2.08;;
7031;SDS011;3557;48.880;8.328;2023-03-23T08:06:50;5.22;;;2.30;;
7031;SDS011;3557;48.880;8.328;2023-03-23T08:09:39;2.22;;;2.00;;
7031;SDS011;3557;48.880;8.328;2023-03-23T08:12:22;3.33;;;2.15;;
7031;SDS011;3557;48.880;8.328;2023-03-23T08:15:02;3.05;;;2.08;;
7031;SDS011;3557;48.880;8.328;2023-03-23T08:17:50;4.45;;;2.08;;
7031;SDS011;3557;48.880;8.328;2023-03-23T08:20:37;3.03;;;2.50;;
7031;SDS011;3557;48.880;8.328;2023-03-23T08:23:28;2.67;;;2.10;;
7031;SDS011;3557;48.880;8.328;2023-03-23T08:26:21;2.60;;;2.17;;
7031;SDS011;3557;48.880;8.328;2023-03-23T08:29:18;2.85;;;1.85;;
7031;SDS011;3557;48.880;8.328;2023-03-23T08:32:10;3.08;;;1.83;;
7031;SDS011;3557;48.880;8.328;2023-03-23T08:34:52;2.97;;;1.70;;
7031;SDS011;3557;48.880;8.328;2023-03-23T08:37:38;3.50;;;1.88;;
7031;SDS011;3557;48.880;8.328;2023-03-23T08:40:42;2.85;;;1.77;;
7031;SDS011;3557;48.880;8.328;2023-03-23T08:43:28;2.28;;;1.80;;
7031;SDS011;3557;48.880;8.328;2023-03-23T08:46:14;2.35;;;1.70;;
7031;SDS011;3557;48.880;8.328;2023-03-23T08:48:47;4.13;;;1.90;;
7031;SDS011;3557;48.880;8.328;2023-03-23T08:51:35;2.85;;;1.70;;
7031;SDS011;3557;48.880;8.328;2023-03-23T08:54:14;1.98;;;1.70;;
7031;SDS011;3557;48.880;8.328;2023-03-23T08:57:01;2.05;;;1.52;;
7031;SDS011;3557;48.880;8.328;2023-03-23T08:59:47;1.75;;;1.65;;
7031;SDS011;3557;48.880;8.328;2023-03-23T09:02:28;1.95;;;1.75;;
7031;SDS011;3557;48.880;8.328;2023-03-23T09:05:12;3.35;;;1.80;;
7031;SDS011;3557;48.880;8.328;2023-03-23T09:08:00;3.15;;;1.60;;
7031;SDS011;3557;48.880;8.328;2023-03-23T09:10:29;1.70;;;1.60;;
7031;SDS011;3557;48.880;8.328;2023-03-23T09:12:56;1.67;;;1.50;;
7031;SDS011;3557;48.880;8.328;2023-03-23T09:15:24;1.65;;;1.50;;
7031;SDS011;3557;48.880;8.328;2023-03-23T09:17:52;1.40;;;1.30;;
7031;SDS011;3557;48.880;8.328;2023-03-23T09:20:22;3.90;;;1.63;;
7031;SDS011;3557;48.880;8.328;2023-03-23T09:22:52;2.03;;;1.50;;
7031;SDS011;3557;48.880;8.328;2023-03-23T09:25:24;1.40;;;1.30;;
7031;SDS011;3557;48.880;8.328;2023-03-23T09:27:54;1.40;;;1.30;;
7031;SDS011;3557;48.880;8.328;2023-03-23T09:30:23;2.53;;;1.48;;
7031;SDS011;3557;48.880;8.328;2023-03-23T09:32:53;2.65;;;1.58;;
7031;SDS011;3557;48.880;8.328;2023-03-23T09:35:21;1.40;;;1.30;;
7031;SDS011;3557;48.880;8.328;2023-03-23T09:37:50;1.73;;;1.23;;
7031;SDS011;3557;48.880;8.328;2023-03-23T09:40:19;3.30;;;1.48;;
7031;SDS011;3557;48.880;8.328;2023-03-23T09:42:54;1.30;;;1.20;;
7031;SDS011;3557;48.880;8.328;2023-03-23T09:45:41;1.27;;;1.17;;
7031;SDS011;3557;48.880;8.328;2023-03-23T09:51:12;1.40;;;1.30;;
7031;SDS011;3557;48.880;8.328;2023-03-23T09:53:52;2.20;;;1.20;;
7031;SDS011;3557;48.880;8.328;2023-03-23T09:56:23;1.60;;;1.20;;
7031;SDS011;3557;48.880;8.328;2023-03-23T09:58:59;1.45;;;1.35;;
7031;SDS011;3557;48.880;8.328;2023-03-23T10:01:32;1.83;;;1.13;;
7031;SDS011;3557;48.880;8.328;2023-03-23T10:04:03;1.33;;;1.23;;
7031;SDS011;3557;48.880;8.328;2023-03-23T10:06:36;1.42;;;1.20;;
7031;SDS011;3557;48.880;8.328;2023-03-23T10:09:04;1.88;;;1.50;;
7031;SDS011;3557;48.880;8.328;2023-03-23T10:11:43;2.05;;;1.50;;
7031;SDS011;3557;48.880;8.328;2023-03-23T10:14:22;2.42;;;1.45;;
7031;SDS011;3557;48.880;8.328;2023-03-23T10:17:03;1.20;;;1.15;;
7031;SDS011;3557;48.880;8.328;2023-03-23T10:19:42;2.00;;;1.52;;
7031;SDS011;3557;48.880;8.328;2023-03-23T10:22:17;1.42;;;1.33;;
7031;SDS011;3557;48.880;8.328;2023-03-23T10:24:51;1.58;;;1.40;;
7031;SDS011;3557;48.880;8.328;2023-03-23T10:27:25;1.92;;;1.48;;
7031;SDS011;3557;48.880;8.328;2023-03-23T10:29:55;3.50;;;1.40;;
7031;SDS011;3557;48.880;8.328;2023-03-23T10:32:36;1.80;;;1.48;;
7031;SDS011;3557;48.880;8.328;2023-03-23T10:35:10;1.42;;;1.33;;
7031;SDS011;3557;48.880;8.328;2023-03-23T10:37:43;1.40;;;1.30;;
7031;SDS011;3557;48.880;8.328;2023-03-23T10:40:15;1.50;;;1.40;;
7031;SDS011;3557;48.880;8.328;2023-03-23T10:42:46;1.92;;;1.73;;
7031;SDS011;3557;48.880;8.328;2023-03-23T10:45:15;1.40;;;1.30;;
7031;SDS011;3557;48.880;8.328;2023-03-23T10:47:47;2.00;;;1.65;;
7031;SDS011;3557;48.880;8.328;2023-03-23T10:50:22;1.63;;;1.52;;
7031;SDS011;3557;48.880;8.328;2023-03-23T10:52:52;2.60;;;2.40;;
7031;SDS011;3557;48.880;8.328;2023-03-23T10:55:23;2.58;;;1.80;;
7031;SDS011;3557;48.880;8.328;2023-03-23T10:58:03;1.70;;;1.60;;
7031;SDS011;3557;48.880;8.328;2023-03-23T11:00:32;1.98;;;1.63;;
7031;SDS011;3557;48.880;8.328;2023-03-23T11:03:01;2.85;;;1.55;;
7031;SDS011;3557;48.880;8.328;2023-03-23T11:05:33;2.00;;;1.60;;
7031;SDS011;3557;48.880;8.328;2023-03-23T11:08:10;2.75;;;1.55;;
7031;SDS011;3557;48.880;8.328;2023-03-23T11:10:40;1.98;;;1.52;;
7031;SDS011;3557;48.880;8.328;2023-03-23T11:13:21;1.63;;;1.40;;
7031;SDS011;3557;48.880;8.328;2023-03-23T11:15:53;2.80;;;1.50;;
7031;SDS011;3557;48.880;8.328;2023-03-23T11:18:22;1.67;;;1.58;;
7031;SDS011;3557;48.880;8.328;2023-03-23T11:20:54;2.88;;;1.67;;
7031;SDS011;3557;48.880;8.328;2023-03-23T11:23:23;2.40;;;1.83;;
7031;SDS011;3557;48.880;8.328;2023-03-23T11:25:56;4.20;;;1.70;;
7031;SDS011;3557;48.880;8.328;2023-03-23T11:28:34;4.25;;;1.85;;
7031;SDS011;3557;48.880;8.328;2023-03-23T11:31:04;2.42;;;1.90;;
7031;SDS011;3557;48.880;8.328;2023-03-23T11:33:36;2.53;;;1.80;;
7031;SDS011;3557;48.880;8.328;2023-03-23T11:36:09;6.50;;;2.30;;
7031;SDS011;3557;48.880;8.328;2023-03-23T11:38:40;3.80;;;2.50;;
7031;SDS011;3557;48.880;8.328;2023-03-23T11:41:10;2.05;;;1.75;;
7031;SDS011;3557;48.880;8.328;2023-03-23T11:43:41;2.25;;;1.80;;
7031;SDS011;3557;48.880;8.328;2023-03-23T11:46:15;2.17;;;1.63;;
7031;SDS011;3557;48.880;8.328;2023-03-23T11:48:57;2.97;;;1.88;;
7031;SDS011;3557;48.880;8.328;2023-03-23T11:51:29;2.20;;;1.60;;
7031;SDS011;3557;48.880;8.328;2023-03-23T11:54:02;2.33;;;1.80;;
7031;SDS011;3557;48.880;8.328;2023-03-23T11:56:36;3.72;;;2.15;;
7031;SDS011;3557;48.880;8.328;2023-03-23T11:59:10;2.38;;;1.90;;
7031;SDS011;3557;48.880;8.328;2023-03-23T12:04:32;2.13;;;1.63;;
7031;SDS011;3557;48.880;8.328;2023-03-23T12:07:14;1.98;;;1.80;;
7031;SDS011;3557;48.880;8.328;2023-03-23T12:10:08;2.13;;;1.83;;
7031;SDS011;3557;48.880;8.328;2023-03-23T12:12:51;2.28;;;1.92;;
7031;SDS011;3557;48.880;8.328;2023-03-23T12:15:31;3.00;;;2.10;;
7031;SDS011;3557;48.880;8.328;2023-03-23T12:18:06;2.55;;;2.08;;
7031;SDS011;3557;48.880;8.328;2023-03-23T12:20:44;2.88;;;2.15;;
7031;SDS011;3557;48.880;8.328;2023-03-23T12:23:28;2.30;;;1.80;;
7031;SDS011;3557;48.880;8.328;2023-03-23T12:26:07;1.70;;;1.60;;
7031;SDS011;3557;48.880;8.328;2023-03-23T12:28:46;1.98;;;1.65;;
7031;SDS011;3557;48.880;8.328;2023-03-23T12:31:46;2.17;;;1.70;;
7031;SDS011;3557;48.880;8.328;2023-03-23T12:34:24;2.05;;;1.80;;
7031;SDS011;3557;48.880;8.328;2023-03-23T12:37:06;3.25;;;1.95;;
7031;SDS011;3557;48.880;8.328;2023-03-23T12:42:44;3.30;;;1.95;;
7031;SDS011;3557;48.880;8.328;2023-03-23T12:45:19;2.67;;;2.00;;
7031;SDS011;3557;48.880;8.328;2023-03-23T12:48:08;2.55;;;1.90;;
7031;SDS011;3557;48.880;8.328;2023-03-23T12:50:40;2.20;;;2.00;;
7031;SDS011;3557;48.880;8.328;2023-03-23T12:53:10;2.67;;;2.03;;
7031;SDS011;3557;48.880;8.328;2023-03-23T12:55:43;2.15;;;1.92;;
7031;SDS011;3557;48.880;8.328;2023-03-23T12:58:13;3.80;;;2.15;;
7031;SDS011;3557;48.880;8.328;2023-03-23T13:00:53;2.08;;;1.80;;
7031;SDS011;3557;48.880;8.328;2023-03-23T13:03:27;2.33;;;1.98;;
7031;SDS011;3557;48.880;8.328;2023-03-23T13:06:00;2.03;;;1.80;;
7031;SDS011;3557;48.880;8.328;2023-03-23T13:08:35;3.20;;;2.30;;
7031;SDS011;3557;48.880;8.328;2023-03-23T13:11:05;2.53;;;2.00;;
7031;SDS011;3557;48.880;8.328;2023-03-23T13:13:40;3.92;;;2.10;;
7031;SDS011;3557;48.880;8.328;2023-03-23T13:16:17;2.55;;;1.95;;
7031;SDS011;3557;48.880;8.328;2023-03-23T13:18:57;2.80;;;2.00;;
7031;SDS011;3557;48.880;8.328;2023-03-23T13:21:36;2.83;;;2.20;;
7031;SDS011;3557;48.880;8.328;2023-03-23T13:24:09;2.10;;;1.90;;
7031;SDS011;3557;48.880;8.328;2023-03-23T13:26:39;2.58;;;2.10;;
7031;SDS011;3557;48.880;8.328;2023-03-23T13:29:09;4.10;;;2.00;;
7031;SDS011;3557;48.880;8.328;2023-03-23T13:31:43;3.67;;;2.05;;
7031;SDS011;3557;48.880;8.328;2023-03-23T13:34:15;2.53;;;2.00;;
7031;SDS011;3557;48.880;8.328;2023-03-23T13:36:52;3.10;;;2.20;;
7031;SDS011;3557;48.880;8.328;2023-03-23T13:39:22;4.35;;;2.00;;
7031;SDS011;3557;48.880;8.328;2023-03-23T13:42:00;3.15;;;2.40;;
7031;SDS011;3557;48.880;8.328;2023-03-23T13:44:41;4.53;;;2.45;;
7031;SDS011;3557;48.880;8.328;2023-03-23T13:47:17;3.13;;;2.25;;
7031;SDS011;3557;48.880;8.328;2023-03-23T13:49:54;10.23;;;3.28;;
7031;SDS011;3557;48.880;8.328;2023-03-23T13:52:25;3.40;;;2.05;;
7031;SDS011;3557;48.880;8.328;2023-03-23T13:55:08;3.28;;;2.63;;
7031;SDS011;3557;48.880;8.328;2023-03-23T13:57:51;3.78;;;2.05;;
7031;SDS011;3557;48.880;8.328;2023-03-23T14:00:27;2.72;;;2.10;;
7031;SDS011;3557;48.880;8.328;2023-03-23T14:03:10;2.15;;;1.88;;
7031;SDS011;3557;48.880;8.328;2023-03-23T14:05:42;3.67;;;2.30;;
7031;SDS011;3557;48.880;8.328;2023-03-23T14:08:12;6.32;;;2.45;;
7031;SDS011;3557;48.880;8.328;2023-03-23T14:10:49;2.65;;;2.30;;
7031;SDS011;3557;48.880;8.328;2023-03-23T14:13:22;3.75;;;2.40;;
7031;SDS011;3557;48.880;8.328;2023-03-23T14:15:57;2.50;;;2.10;;
7031;SDS011;3557;48.880;8.328;2023-03-23T14:18:31;3.13;;;2.08;;
7031;SDS011;3557;48.880;8.328;2023-03-23T14:21:04;2.90;;;2.35;;
7031;SDS011;3557;48.880;8.328;2023-03-23T14:23:33;3.08;;;1.85;;
7031;SDS011;3557;48.880;8.328;2023-03-23T14:26:01;2.85;;;2.10;;
7031;SDS011;3557;48.880;8.328;2023-03-23T14:28:38;3.95;;;1.95;;
7031;SDS011;3557;48.880;8.328;2023-03-23T14:31:14;3.85;;;2.00;;
7031;SDS011;3557;48.880;8.328;2023-03-23T14:33:44;2.10;;;1.90;;
7031;SDS011;3557;48.880;8.328;2023-03-23T14:36:14;3.45;;;2.20;;
7031;SDS011;3557;48.880;8.328;2023-03-23T14:38:45;3.72;;;1.88;;
7031;SDS011;3557;48.880;8.328;2023-03-23T14:41:12;4.10;;;2.20;;
7031;SDS011;3557;48.880;8.328;2023-03-23T14:43:40;2.20;;;1.95;;
7031;SDS011;3557;48.880;8.328;2023-03-23T14:46:07;4.68;;;2.85;;
7031;SDS011;3557;48.880;8.328;2023-03-23T14:48:37;8.60;;;2.35;;
7031;SDS011;3557;48.880;8.328;2023-03-23T14:51:05;2.95;;;2.03;;
7031;SDS011;3557;48.880;8.328;2023-03-23T14:53:35;3.10;;;2.25;;
7031;SDS011;3557;48.880;8.328;2023-03-23T14:56:08;4.97;;;2.70;;
7031;SDS011;3557;48.880;8.328;2023-03-23T14:58:42;8.75;;;2.50;;
7031;SDS011;3557;48.880;8.328;2023-03-23T15:01:12;3.35;;;2.10;;
7031;SDS011;3557;48.880;8.328;2023-03-23T15:03:43;10.10;;;5.13;;
7031;SDS011;3557;48.880;8.328;2023-03-23T15:06:17;8.90;;;3.85;;
7031;SDS011;3557;48.880;8.328;2023-03-23T15:08:47;3.40;;;2.30;;
7031;SDS011;3557;48.880;8.328;2023-03-23T15:11:27;4.80;;;2.67;;
7031;SDS011;3557;48.880;8.328;2023-03-23T15:13:56;3.05;;;2.20;;
7031;SDS011;3557;48.880;8.328;2023-03-23T15:16:29;2.83;;;2.10;;
7031;SDS011;3557;48.880;8.328;2023-03-23T15:18:58;2.67;;;2.00;;
7031;SDS011;3557;48.880;8.328;2023-03-23T15:21:28;3.15;;;2.03;;
7031;SDS011;3557;48.880;8.328;2023-03-23T15:24:00;2.63;;;2.00;;
7031;SDS011;3557;48.880;8.328;2023-03-23T15:26:44;2.70;;;2.50;;
7031;SDS011;3557;48.880;8.328;2023-03-23T15:29:13;3.63;;;2.28;;
7031;SDS011;3557;48.880;8.328;2023-03-23T15:31:46;2.75;;;2.05;;
7031;SDS011;3557;48.880;8.328;2023-03-23T15:34:20;2.85;;;2.17;;
7031;SDS011;3557;48.880;8.328;2023-03-23T15:36:54;2.80;;;2.13;;
7031;SDS011;3557;48.880;8.328;2023-03-23T15:39:26;5.45;;;2.15;;
7031;SDS011;3557;48.880;8.328;2023-03-23T15:41:55;3.58;;;2.28;;
7031;SDS011;3557;48.880;8.328;2023-03-23T15:44:25;2.67;;;2.17;;
7031;SDS011;3557;48.880;8.328;2023-03-23T15:49:47;2.92;;;2.08;;
7031;SDS011;3557;48.880;8.328;2023-03-23T15:52:28;3.22;;;2.20;;
7031;SDS011;3557;48.880;8.328;2023-03-23T15:54:57;2.20;;;1.98;;
7031;SDS011;3557;48.880;8.328;2023-03-23T15:57:24;2.20;;;2.00;;
7031;SDS011;3557;48.880;8.328;2023-03-23T15:59:51;4.07;;;1.98;;
7031;SDS011;3557;48.880;8.328;2023-03-23T16:02:20;7.35;;;2.28;;
7031;SDS011;3557;48.880;8.328;2023-03-23T16:04:49;3.65;;;2.00;;
7031;SDS011;3557;48.880;8.328;2023-03-23T16:07:17;5.60;;;2.20;;
7031;SDS011;3557;48.880;8.328;2023-03-23T16:09:48;4.90;;;2.20;;
7031;SDS011;3557;48.880;8.328;2023-03-23T16:12:17;15.65;;;8.82;;
7031;SDS011;3557;48.880;8.328;2023-03-23T16:14:44;10.38;;;5.40;;